sensor_id;sensor_type;location;lat;lon;timestamp;P1;durP1;ratioP1;P2;durP2;ratioP2
14046;SDS011;7098;51.228;3.228;2023-04-19T00:01:26;3.30;;;2.38;;
14046;SDS011;7098;51.228;3.228;2023-04-19T00:03:53;2.63;;;2.28;;
14046;SDS011;7098;51.228;3.228;2023-04-19T00:06:20;2.58;;;2.38;;
14046;SDS011;7098;51.228;3.228;2023-04-19T00:08:45;2.95;;;2.60;;
14046;SDS011;7098;51.228;3.228;2023-04-19T00:11:11;2.33;;;2.13;;
14046;SDS011;7098;51.228;3.228;2023-04-19T00:13:36;2.83;;;2.45;;
14046;SDS011;7098;51.228;3.228;2023-04-19T00:16:02;3.22;;;2.15;;
14046;SDS011;7098;51.228;3.228;2023-04-19T00:18:29;2.70;;;2.40;;
14046;SDS011;7098;51.228;3.228;2023-04-19T00:20:54;2.75;;;2.40;;
14046;SDS011;7098;51.228;3.228;2023-04-19T00:23:20;3.22;;;2.20;;
14046;SDS011;7098;51.228;3.228;2023-04-19T00:25:47;3.08;;;2.45;;
14046;SDS011;7098;51.228;3.228;2023-04-19T00:28:13;2.72;;;2.53;;
14046;SDS011;7098;51.228;3.228;2023-04-19T00:30:38;2.53;;;2.33;;
14046;SDS011;7098;51.228;3.228;2023-04-19T00:33:04;2.45;;;2.22;;
14046;SDS011;7098;51.228;3.228;2023-04-19T00:35:36;2.35;;;2.10;;
14046;SDS011;7098;51.228;3.228;2023-04-19T00:38:02;2.38;;;2.17;;
14046;SDS011;7098;51.228;3.228;2023-04-19T00:40:28;2.47;;;2.28;;
14046;SDS011;7098;51.228;3.228;2023-04-19T00:42:55;2.35;;;2.15;;
14046;SDS011;7098;51.228;3.228;2023-04-19T00:45:21;2.42;;;2.13;;
14046;SDS011;7098;51.228;3.228;2023-04-19T00:47:47;2.33;;;2.13;;
14046;SDS011;7098;51.228;3.228;2023-04-19T00:50:12;1.92;;;1.83;;
14046;SDS011;7098;51.228;3.228;2023-04-19T00:52:38;2.38;;;2.17;;
14046;SDS011;7098;51.228;3.228;2023-04-19T00:55:04;2.50;;;2.30;;
14046;SDS011;7098;51.228;3.228;2023-04-19T00:57:31;2.30;;;2.10;;
14046;SDS011;7098;51.228;3.228;2023-04-19T00:59:57;2.67;;;2.30;;
14046;SDS011;7098;51.228;3.228;2023-04-19T01:02:22;2.45;;;2.22;;
14046;SDS011;7098;51.228;3.228;2023-04-19T01:04:48;2.97;;;2.30;;
14046;SDS011;7098;51.228;3.228;2023-04-19T01:07:14;2.65;;;2.28;;
14046;SDS011;7098;51.228;3.228;2023-04-19T01:09:40;2.30;;;2.10;;
14046;SDS011;7098;51.228;3.228;2023-04-19T01:12:07;2.20;;;2.00;;
14046;SDS011;7098;51.228;3.228;2023-04-19T01:14:33;2.33;;;2.13;;
14046;SDS011;7098;51.228;3.228;2023-04-19T01:16:59;2.28;;;2.08;;
14046;SDS011;7098;51.228;3.228;2023-04-19T01:19:24;2.25;;;2.05;;
14046;SDS011;7098;51.228;3.228;2023-04-19T01:21:50;2.33;;;2.10;;
14046;SDS011;7098;51.228;3.228;2023-04-19T01:24:16;2.20;;;2.03;;
14046;SDS011;7098;51.228;3.228;2023-04-19T01:26:42;2.10;;;1.90;;
14046;SDS011;7098;51.228;3.228;2023-04-19T01:29:08;2.40;;;2.20;;
14046;SDS011;7098;51.228;3.228;2023-04-19T01:31:33;2.03;;;1.85;;
14046;SDS011;7098;51.228;3.228;2023-04-19T01:33:59;2.30;;;2.10;;
14046;SDS011;7098;51.228;3.228;2023-04-19T01:36:25;2.38;;;2.10;;
14046;SDS011;7098;51.228;3.228;2023-04-19T01:38:51;2.05;;;1.95;;
14046;SDS011;7098;51.228;3.228;2023-04-19T01:41:17;2.15;;;1.98;;
14046;SDS011;7098;51.228;3.228;2023-04-19T01:43:44;3.17;;;2.25;;
14046;SDS011;7098;51.228;3.228;2023-04-19T01:46:10;2.10;;;1.90;;
14046;SDS011;7098;51.228;3.228;2023-04-19T01:48:35;1.90;;;1.80;;
14046;SDS011;7098;51.228;3.228;2023-04-19T01:51:01;2.20;;;2.00;;
14046;SDS011;7098;51.228;3.228;2023-04-19T01:53:26;2.63;;;2.17;;
14046;SDS011;7098;51.228;3.228;2023-04-19T01:55:53;2.20;;;1.98;;
14046;SDS011;7098;51.228;3.228;2023-04-19T01:58:19;2.92;;;2.10;;
14046;SDS011;7098;51.228;3.228;2023-04-19T02:00:45;2.33;;;1.90;;
14046;SDS011;7098;51.228;3.228;2023-04-19T02:03:10;2.00;;;1.80;;
14046;SDS011;7098;51.228;3.228;2023-04-19T02:05:37;1.73;;;1.60;;
14046;SDS011;7098;51.228;3.228;2023-04-19T02:08:03;2.17;;;1.98;;
14046;SDS011;7098;51.228;3.228;2023-04-19T02:10:29;2.20;;;2.00;;
14046;SDS011;7098;51.228;3.228;2023-04-19T02:12:54;2.80;;;1.83;;
14046;SDS011;7098;51.228;3.228;2023-04-19T02:15:20;2.10;;;1.90;;
14046;SDS011;7098;51.228;3.228;2023-04-19T02:17:46;1.95;;;1.75;;
14046;SDS011;7098;51.228;3.228;2023-04-19T02:20:11;2.13;;;1.77;;
14046;SDS011;7098;51.228;3.228;2023-04-19T02:22:37;2.17;;;1.98;;
14046;SDS011;7098;51.228;3.228;2023-04-19T02:25:03;1.98;;;1.88;;
14046;SDS011;7098;51.228;3.228;2023-04-19T02:27:29;1.90;;;1.80;;
14046;SDS011;7098;51.228;3.228;2023-04-19T02:29:55;1.90;;;1.80;;
14046;SDS011;7098;51.228;3.228;2023-04-19T02:32:21;2.13;;;1.90;;
14046;SDS011;7098;51.228;3.228;2023-04-19T02:34:46;1.90;;;1.80;;
14046;SDS011;7098;51.228;3.228;2023-04-19T02:37:12;2.00;;;1.90;;
14046;SDS011;7098;51.228;3.228;2023-04-19T02:39:38;2.40;;;2.03;;
14046;SDS011;7098;51.228;3.228;2023-04-19T02:42:05;1.70;;;1.60;;
14046;SDS011;7098;51.228;3.228;2023-04-19T02:44:31;2.10;;;1.83;;
14046;SDS011;7098;51.228;3.228;2023-04-19T02:46:57;1.98;;;1.80;;
14046;SDS011;7098;51.228;3.228;2023-04-19T02:49:22;1.80;;;1.70;;
14046;SDS011;7098;51.228;3.228;2023-04-19T02:51:49;2.20;;;1.98;;
14046;SDS011;7098;51.228;3.228;2023-04-19T02:54:15;2.38;;;2.17;;
14046;SDS011;7098;51.228;3.228;2023-04-19T02:56:40;2.08;;;1.88;;
14046;SDS011;7098;51.228;3.228;2023-04-19T02:59:06;1.70;;;1.60;;
14046;SDS011;7098;51.228;3.228;2023-04-19T03:01:31;1.90;;;1.80;;
14046;SDS011;7098;51.228;3.228;2023-04-19T03:03:57;1.85;;;1.70;;
14046;SDS011;7098;51.228;3.228;2023-04-19T03:06:23;1.88;;;1.77;;
14046;SDS011;7098;51.228;3.228;2023-04-19T03:08:48;2.13;;;1.92;;
14046;SDS011;7098;51.228;3.228;2023-04-19T03:11:15;2.33;;;2.10;;
14046;SDS011;7098;51.228;3.228;2023-04-19T03:13:41;2.38;;;2.00;;
14046;SDS011;7098;51.228;3.228;2023-04-19T03:16:07;2.00;;;1.90;;
14046;SDS011;7098;51.228;3.228;2023-04-19T03:18:32;2.20;;;2.00;;
14046;SDS011;7098;51.228;3.228;2023-04-19T03:20:58;1.90;;;1.80;;
14046;SDS011;7098;51.228;3.228;2023-04-19T03:23:25;2.10;;;1.90;;
14046;SDS011;7098;51.228;3.228;2023-04-19T03:25:51;1.70;;;1.60;;
14046;SDS011;7098;51.228;3.228;2023-04-19T03:28:17;2.22;;;1.95;;
14046;SDS011;7098;51.228;3.228;2023-04-19T03:30:42;1.83;;;1.73;;
14046;SDS011;7098;51.228;3.228;2023-04-19T03:33:08;2.00;;;1.75;;
14046;SDS011;7098;51.228;3.228;2023-04-19T03:35:34;3.15;;;2.20;;
14046;SDS011;7098;51.228;3.228;2023-04-19T03:38:00;1.90;;;1.80;;
14046;SDS011;7098;51.228;3.228;2023-04-19T03:40:25;2.03;;;1.67;;
14046;SDS011;7098;51.228;3.228;2023-04-19T03:42:51;1.98;;;1.88;;
14046;SDS011;7098;51.228;3.228;2023-04-19T03:45:16;2.08;;;1.92;;
14046;SDS011;7098;51.228;3.228;2023-04-19T03:47:42;1.92;;;1.77;;
14046;SDS011;7098;51.228;3.228;2023-04-19T03:50:08;1.90;;;1.80;;
14046;SDS011;7098;51.228;3.228;2023-04-19T03:52:34;2.00;;;1.85;;
14046;SDS011;7098;51.228;3.228;2023-04-19T03:55:00;1.95;;;1.80;;
14046;SDS011;7098;51.228;3.228;2023-04-19T03:57:25;2.20;;;2.00;;
14046;SDS011;7098;51.228;3.228;2023-04-19T03:59:51;1.90;;;1.80;;
14046;SDS011;7098;51.228;3.228;2023-04-19T04:02:17;1.83;;;1.73;;
14046;SDS011;7098;51.228;3.228;2023-04-19T04:04:42;2.33;;;1.90;;
14046;SDS011;7098;51.228;3.228;2023-04-19T04:07:08;1.80;;;1.70;;
14046;SDS011;7098;51.228;3.228;2023-04-19T04:09:33;1.90;;;1.80;;
14046;SDS011;7098;51.228;3.228;2023-04-19T04:11:59;2.13;;;1.92;;
14046;SDS011;7098;51.228;3.228;2023-04-19T04:14:25;1.90;;;1.80;;
14046;SDS011;7098;51.228;3.228;2023-04-19T04:16:51;2.03;;;1.83;;
14046;SDS011;7098;51.228;3.228;2023-04-19T04:19:16;2.13;;;1.90;;
14046;SDS011;7098;51.228;3.228;2023-04-19T04:21:42;1.75;;;1.65;;
14046;SDS011;7098;51.228;3.228;2023-04-19T04:24:08;2.42;;;1.95;;
14046;SDS011;7098;51.228;3.228;2023-04-19T04:26:34;2.30;;;2.13;;
14046;SDS011;7098;51.228;3.228;2023-04-19T04:29:03;2.55;;;2.30;;
14046;SDS011;7098;51.228;3.228;2023-04-19T04:31:29;2.40;;;2.20;;
14046;SDS011;7098;51.228;3.228;2023-04-19T04:33:55;2.17;;;1.98;;
14046;SDS011;7098;51.228;3.228;2023-04-19T04:36:21;2.28;;;1.92;;
14046;SDS011;7098;51.228;3.228;2023-04-19T04:38:47;2.05;;;1.85;;
14046;SDS011;7098;51.228;3.228;2023-04-19T04:41:16;2.10;;;2.00;;
14046;SDS011;7098;51.228;3.228;2023-04-19T04:43:42;1.90;;;1.80;;
14046;SDS011;7098;51.228;3.228;2023-04-19T04:46:07;2.00;;;1.90;;
14046;SDS011;7098;51.228;3.228;2023-04-19T04:48:33;2.17;;;1.98;;
14046;SDS011;7098;51.228;3.228;2023-04-19T04:50:59;2.35;;;2.15;;
14046;SDS011;7098;51.228;3.228;2023-04-19T04:53:25;1.90;;;1.80;;
14046;SDS011;7098;51.228;3.228;2023-04-19T04:55:51;1.83;;;1.73;;
14046;SDS011;7098;51.228;3.228;2023-04-19T04:58:20;2.75;;;2.08;;
14046;SDS011;7098;51.228;3.228;2023-04-19T05:00:45;3.17;;;2.42;;
14046;SDS011;7098;51.228;3.228;2023-04-19T05:03:12;2.55;;;2.20;;
14046;SDS011;7098;51.228;3.228;2023-04-19T05:05:39;2.45;;;2.25;;
14046;SDS011;7098;51.228;3.228;2023-04-19T05:08:04;2.15;;;1.95;;
14046;SDS011;7098;51.228;3.228;2023-04-19T05:10:33;2.38;;;2.17;;
14046;SDS011;7098;51.228;3.228;2023-04-19T05:13:00;2.97;;;1.98;;
14046;SDS011;7098;51.228;3.228;2023-04-19T05:15:25;2.03;;;1.88;;
14046;SDS011;7098;51.228;3.228;2023-04-19T05:17:51;2.10;;;1.90;;
14046;SDS011;7098;51.228;3.228;2023-04-19T05:20:17;3.45;;;2.00;;
14046;SDS011;7098;51.228;3.228;2023-04-19T05:22:42;2.45;;;1.90;;
14046;SDS011;7098;51.228;3.228;2023-04-19T05:25:08;2.30;;;2.10;;
14046;SDS011;7098;51.228;3.228;2023-04-19T05:27:34;4.72;;;2.20;;
14046;SDS011;7098;51.228;3.228;2023-04-19T05:30:00;4.22;;;1.90;;
14046;SDS011;7098;51.228;3.228;2023-04-19T05:32:27;2.03;;;1.90;;
14046;SDS011;7098;51.228;3.228;2023-04-19T05:34:53;2.10;;;1.90;;
14046;SDS011;7098;51.228;3.228;2023-04-19T05:37:19;2.90;;;2.22;;
14046;SDS011;7098;51.228;3.228;2023-04-19T05:39:45;3.92;;;2.20;;
14046;SDS011;7098;51.228;3.228;2023-04-19T05:42:10;3.63;;;2.25;;
14046;SDS011;7098;51.228;3.228;2023-04-19T05:44:39;2.78;;;2.10;;
14046;SDS011;7098;51.228;3.228;2023-04-19T05:47:05;3.65;;;2.00;;
14046;SDS011;7098;51.228;3.228;2023-04-19T05:49:31;2.67;;;2.15;;
14046;SDS011;7098;51.228;3.228;2023-04-19T05:51:56;2.53;;;2.20;;
14046;SDS011;7098;51.228;3.228;2023-04-19T05:54:22;2.35;;;2.15;;
14046;SDS011;7098;51.228;3.228;2023-04-19T05:56:48;5.65;;;2.40;;
14046;SDS011;7098;51.228;3.228;2023-04-19T05:59:13;4.70;;;2.20;;
14046;SDS011;7098;51.228;3.228;2023-04-19T06:01:39;2.47;;;2.08;;
14046;SDS011;7098;51.228;3.228;2023-04-19T06:04:05;3.08;;;2.30;;
14046;SDS011;7098;51.228;3.228;2023-04-19T06:06:30;3.55;;;2.17;;
14046;SDS011;7098;51.228;3.228;2023-04-19T06:08:56;4.55;;;2.47;;
14046;SDS011;7098;51.228;3.228;2023-04-19T06:11:22;2.53;;;2.00;;
14046;SDS011;7098;51.228;3.228;2023-04-19T06:13:48;3.95;;;2.20;;
14046;SDS011;7098;51.228;3.228;2023-04-19T06:16:15;2.30;;;2.10;;
14046;SDS011;7098;51.228;3.228;2023-04-19T06:18:41;2.28;;;1.98;;
14046;SDS011;7098;51.228;3.228;2023-04-19T06:21:07;3.47;;;2.00;;
14046;SDS011;7098;51.228;3.228;2023-04-19T06:23:32;2.20;;;2.00;;
14046;SDS011;7098;51.228;3.228;2023-04-19T06:25:58;2.92;;;2.50;;
14046;SDS011;7098;51.228;3.228;2023-04-19T06:28:24;2.50;;;1.98;;
14046;SDS011;7098;51.228;3.228;2023-04-19T06:30:49;3.08;;;2.00;;
14046;SDS011;7098;51.228;3.228;2023-04-19T06:33:15;1.92;;;1.80;;
14046;SDS011;7098;51.228;3.228;2023-04-19T06:35:40;2.38;;;2.03;;
14046;SDS011;7098;51.228;3.228;2023-04-19T06:38:06;2.55;;;2.03;;
14046;SDS011;7098;51.228;3.228;2023-04-19T06:40:32;2.30;;;2.10;;
14046;SDS011;7098;51.228;3.228;2023-04-19T06:42:58;2.42;;;1.80;;
14046;SDS011;7098;51.228;3.228;2023-04-19T06:45:24;2.67;;;2.03;;
14046;SDS011;7098;51.228;3.228;2023-04-19T06:47:50;2.22;;;1.85;;
14046;SDS011;7098;51.228;3.228;2023-04-19T06:50:15;2.25;;;1.83;;
14046;SDS011;7098;51.228;3.228;2023-04-19T06:52:41;2.22;;;2.03;;
14046;SDS011;7098;51.228;3.228;2023-04-19T06:55:07;2.30;;;1.85;;
14046;SDS011;7098;51.228;3.228;2023-04-19T06:57:33;2.28;;;1.83;;
14046;SDS011;7098;51.228;3.228;2023-04-19T06:59:59;2.42;;;1.80;;
14046;SDS011;7098;51.228;3.228;2023-04-19T07:02:24;1.90;;;1.80;;
14046;SDS011;7098;51.228;3.228;2023-04-19T07:04:50;2.50;;;1.85;;
14046;SDS011;7098;51.228;3.228;2023-04-19T07:07:16;2.10;;;1.90;;
14046;SDS011;7098;51.228;3.228;2023-04-19T07:09:41;1.90;;;1.80;;
14046;SDS011;7098;51.228;3.228;2023-04-19T07:12:07;2.03;;;1.85;;
14046;SDS011;7098;51.228;3.228;2023-04-19T07:14:33;3.25;;;2.10;;
14046;SDS011;7098;51.228;3.228;2023-04-19T07:16:58;2.45;;;2.25;;
14046;SDS011;7098;51.228;3.228;2023-04-19T07:19:24;3.30;;;2.30;;
14046;SDS011;7098;51.228;3.228;2023-04-19T07:21:52;5.72;;;4.53;;
14046;SDS011;7098;51.228;3.228;2023-04-19T07:24:17;4.57;;;3.28;;
14046;SDS011;7098;51.228;3.228;2023-04-19T07:26:43;7.13;;;2.80;;
14046;SDS011;7098;51.228;3.228;2023-04-19T07:29:09;2.90;;;2.58;;
14046;SDS011;7098;51.228;3.228;2023-04-19T07:31:34;2.75;;;2.50;;
14046;SDS011;7098;51.228;3.228;2023-04-19T07:34:00;2.83;;;2.45;;
14046;SDS011;7098;51.228;3.228;2023-04-19T07:36:26;3.20;;;2.28;;
14046;SDS011;7098;51.228;3.228;2023-04-19T07:38:52;4.32;;;2.28;;
14046;SDS011;7098;51.228;3.228;2023-04-19T07:41:17;2.28;;;2.08;;
14046;SDS011;7098;51.228;3.228;2023-04-19T07:43:43;3.08;;;2.40;;
14046;SDS011;7098;51.228;3.228;2023-04-19T07:46:09;4.30;;;2.33;;
14046;SDS011;7098;51.228;3.228;2023-04-19T07:48:36;4.07;;;2.38;;
14046;SDS011;7098;51.228;3.228;2023-04-19T07:51:09;3.90;;;2.40;;
14046;SDS011;7098;51.228;3.228;2023-04-19T07:53:36;2.78;;;2.35;;
14046;SDS011;7098;51.228;3.228;2023-04-19T07:56:04;3.40;;;3.10;;
14046;SDS011;7098;51.228;3.228;2023-04-19T07:58:31;8.40;;;4.43;;
14046;SDS011;7098;51.228;3.228;2023-04-19T08:00:56;7.18;;;4.20;;
14046;SDS011;7098;51.228;3.228;2023-04-19T08:03:22;4.47;;;3.70;;
14046;SDS011;7098;51.228;3.228;2023-04-19T08:05:52;5.68;;;3.90;;
14046;SDS011;7098;51.228;3.228;2023-04-19T08:08:18;4.05;;;3.53;;
14046;SDS011;7098;51.228;3.228;2023-04-19T08:10:44;3.53;;;3.00;;
14046;SDS011;7098;51.228;3.228;2023-04-19T08:13:10;3.85;;;2.95;;
14046;SDS011;7098;51.228;3.228;2023-04-19T08:15:36;4.70;;;3.28;;
14046;SDS011;7098;51.228;3.228;2023-04-19T08:18:01;4.00;;;3.22;;
14046;SDS011;7098;51.228;3.228;2023-04-19T08:20:30;3.90;;;2.67;;
14046;SDS011;7098;51.228;3.228;2023-04-19T08:22:57;3.65;;;2.60;;
14046;SDS011;7098;51.228;3.228;2023-04-19T08:25:24;3.10;;;2.78;;
14046;SDS011;7098;51.228;3.228;2023-04-19T08:27:52;3.50;;;2.42;;
14046;SDS011;7098;51.228;3.228;2023-04-19T08:30:18;2.95;;;2.53;;
14046;SDS011;7098;51.228;3.228;2023-04-19T08:32:44;4.55;;;2.38;;
14046;SDS011;7098;51.228;3.228;2023-04-19T08:35:10;3.13;;;2.60;;
14046;SDS011;7098;51.228;3.228;2023-04-19T08:37:36;2.85;;;2.25;;
14046;SDS011;7098;51.228;3.228;2023-04-19T08:40:01;3.15;;;2.60;;
14046;SDS011;7098;51.228;3.228;2023-04-19T08:42:28;3.17;;;2.40;;
14046;SDS011;7098;51.228;3.228;2023-04-19T08:44:56;2.35;;;2.10;;
14046;SDS011;7098;51.228;3.228;2023-04-19T08:47:26;2.47;;;2.10;;
14046;SDS011;7098;51.228;3.228;2023-04-19T08:49:54;2.58;;;2.20;;
14046;SDS011;7098;51.228;3.228;2023-04-19T08:52:21;3.20;;;2.40;;
14046;SDS011;7098;51.228;3.228;2023-04-19T08:54:48;3.33;;;2.10;;
14046;SDS011;7098;51.228;3.228;2023-04-19T08:57:15;2.92;;;2.15;;
14046;SDS011;7098;51.228;3.228;2023-04-19T08:59:41;2.85;;;2.08;;
14046;SDS011;7098;51.228;3.228;2023-04-19T09:02:09;2.47;;;2.28;;
14046;SDS011;7098;51.228;3.228;2023-04-19T09:04:35;2.33;;;2.13;;
14046;SDS011;7098;51.228;3.228;2023-04-19T09:07:00;3.55;;;2.17;;
14046;SDS011;7098;51.228;3.228;2023-04-19T09:09:27;3.22;;;1.90;;
14046;SDS011;7098;51.228;3.228;2023-04-19T09:11:54;2.17;;;1.98;;
14046;SDS011;7098;51.228;3.228;2023-04-19T09:14:20;2.55;;;2.03;;
14046;SDS011;7098;51.228;3.228;2023-04-19T09:16:46;3.28;;;1.92;;
14046;SDS011;7098;51.228;3.228;2023-04-19T09:19:12;2.20;;;1.92;;
14046;SDS011;7098;51.228;3.228;2023-04-19T09:21:38;2.03;;;1.83;;
14046;SDS011;7098;51.228;3.228;2023-04-19T09:24:04;2.38;;;2.15;;
14046;SDS011;7098;51.228;3.228;2023-04-19T09:26:30;2.53;;;2.33;;
14046;SDS011;7098;51.228;3.228;2023-04-19T09:31:32;3.10;;;2.80;;
14046;SDS011;7098;51.228;3.228;2023-04-19T09:34:15;2.65;;;2.30;;
14046;SDS011;7098;51.228;3.228;2023-04-19T09:36:42;5.07;;;2.85;;
14046;SDS011;7098;51.228;3.228;2023-04-19T09:39:08;3.17;;;2.65;;
14046;SDS011;7098;51.228;3.228;2023-04-19T09:41:34;3.22;;;2.85;;
14046;SDS011;7098;51.228;3.228;2023-04-19T09:44:14;3.70;;;3.13;;
14046;SDS011;7098;51.228;3.228;2023-04-19T09:46:40;3.38;;;3.08;;
14046;SDS011;7098;51.228;3.228;2023-04-19T09:49:15;3.47;;;3.08;;
14046;SDS011;7098;51.228;3.228;2023-04-19T09:51:43;3.42;;;3.13;;
14046;SDS011;7098;51.228;3.228;2023-04-19T09:54:10;6.20;;;3.88;;
14046;SDS011;7098;51.228;3.228;2023-04-19T09:56:37;5.30;;;4.20;;
14046;SDS011;7098;51.228;3.228;2023-04-19T09:59:04;4.15;;;3.75;;
14046;SDS011;7098;51.228;3.228;2023-04-19T10:01:33;4.05;;;3.63;;
14046;SDS011;7098;51.228;3.228;2023-04-19T10:04:05;4.68;;;3.17;;
14046;SDS011;7098;51.228;3.228;2023-04-19T10:06:32;4.45;;;3.25;;
14046;SDS011;7098;51.228;3.228;2023-04-19T10:09:00;5.30;;;3.50;;
14046;SDS011;7098;51.228;3.228;2023-04-19T10:11:33;4.38;;;3.30;;
14046;SDS011;7098;51.228;3.228;2023-04-19T10:14:03;4.38;;;3.28;;
14046;SDS011;7098;51.228;3.228;2023-04-19T10:16:31;5.72;;;3.78;;
14046;SDS011;7098;51.228;3.228;2023-04-19T10:18:57;6.70;;;4.05;;
14046;SDS011;7098;51.228;3.228;2023-04-19T10:21:25;7.72;;;3.97;;
14046;SDS011;7098;51.228;3.228;2023-04-19T10:23:52;5.28;;;3.60;;
14046;SDS011;7098;51.228;3.228;2023-04-19T10:26:18;4.60;;;3.35;;
14046;SDS011;7098;51.228;3.228;2023-04-19T10:28:46;4.13;;;3.55;;
14046;SDS011;7098;51.228;3.228;2023-04-19T10:31:12;4.18;;;3.78;;
14046;SDS011;7098;51.228;3.228;2023-04-19T10:33:38;3.35;;;3.00;;
14046;SDS011;7098;51.228;3.228;2023-04-19T10:36:07;4.95;;;3.13;;
14046;SDS011;7098;51.228;3.228;2023-04-19T10:41:12;3.35;;;2.60;;
14046;SDS011;7098;51.228;3.228;2023-04-19T10:43:39;3.95;;;2.75;;
14046;SDS011;7098;51.228;3.228;2023-04-19T10:46:15;4.00;;;2.45;;
14046;SDS011;7098;51.228;3.228;2023-04-19T10:48:52;4.47;;;2.28;;
14046;SDS011;7098;51.228;3.228;2023-04-19T10:54:27;2.47;;;2.00;;
14046;SDS011;7098;51.228;3.228;2023-04-19T10:57:02;4.15;;;2.42;;
14046;SDS011;7098;51.228;3.228;2023-04-19T10:59:38;3.60;;;1.90;;
14046;SDS011;7098;51.228;3.228;2023-04-19T11:07:15;2.88;;;1.85;;
14046;SDS011;7098;51.228;3.228;2023-04-19T11:09:47;1.80;;;1.70;;
14046;SDS011;7098;51.228;3.228;2023-04-19T11:12:14;5.20;;;2.15;;
14046;SDS011;7098;51.228;3.228;2023-04-19T11:14:50;3.08;;;1.98;;
14046;SDS011;7098;51.228;3.228;2023-04-19T11:17:25;3.63;;;1.83;;
14046;SDS011;7098;51.228;3.228;2023-04-19T11:20:05;5.32;;;2.00;;
14046;SDS011;7098;51.228;3.228;2023-04-19T11:22:45;3.20;;;1.92;;
14046;SDS011;7098;51.228;3.228;2023-04-19T11:25:12;3.35;;;2.63;;
14046;SDS011;7098;51.228;3.228;2023-04-19T11:27:43;2.72;;;2.33;;
14046;SDS011;7098;51.228;3.228;2023-04-19T11:30:11;3.70;;;2.85;;
14046;SDS011;7098;51.228;3.228;2023-04-19T11:32:50;2.55;;;2.35;;
14046;SDS011;7098;51.228;3.228;2023-04-19T11:35:21;5.55;;;2.83;;
14046;SDS011;7098;51.228;3.228;2023-04-19T11:37:48;3.42;;;2.90;;
14046;SDS011;7098;51.228;3.228;2023-04-19T11:40:15;3.47;;;2.65;;
14046;SDS011;7098;51.228;3.228;2023-04-19T11:42:43;3.33;;;2.80;;
14046;SDS011;7098;51.228;3.228;2023-04-19T11:45:10;4.47;;;2.45;;
14046;SDS011;7098;51.228;3.228;2023-04-19T11:47:46;2.55;;;2.35;;
14046;SDS011;7098;51.228;3.228;2023-04-19T11:50:32;2.65;;;2.40;;
14046;SDS011;7098;51.228;3.228;2023-04-19T11:55:46;2.95;;;2.20;;
14046;SDS011;7098;51.228;3.228;2023-04-19T11:58:26;2.97;;;2.28;;
14046;SDS011;7098;51.228;3.228;2023-04-19T12:00:53;2.55;;;2.22;;
14046;SDS011;7098;51.228;3.228;2023-04-19T12:03:23;2.47;;;2.10;;
14046;SDS011;7098;51.228;3.228;2023-04-19T12:05:55;3.33;;;2.30;;
14046;SDS011;7098;51.228;3.228;2023-04-19T12:08:35;1.85;;;1.70;;
14046;SDS011;7098;51.228;3.228;2023-04-19T12:11:11;4.90;;;2.40;;
14046;SDS011;7098;51.228;3.228;2023-04-19T12:13:38;2.55;;;2.35;;
14046;SDS011;7098;51.228;3.228;2023-04-19T12:16:05;3.15;;;2.40;;
14046;SDS011;7098;51.228;3.228;2023-04-19T12:18:47;4.63;;;2.33;;
14046;SDS011;7098;51.228;3.228;2023-04-19T12:21:24;3.33;;;2.67;;
14046;SDS011;7098;51.228;3.228;2023-04-19T12:23:57;2.55;;;2.30;;
14046;SDS011;7098;51.228;3.228;2023-04-19T12:26:25;2.60;;;2.13;;
14046;SDS011;7098;51.228;3.228;2023-04-19T12:28:55;2.28;;;2.17;;
14046;SDS011;7098;51.228;3.228;2023-04-19T12:31:22;3.22;;;2.38;;
14046;SDS011;7098;51.228;3.228;2023-04-19T12:33:48;2.80;;;2.40;;
14046;SDS011;7098;51.228;3.228;2023-04-19T12:36:13;2.65;;;2.10;;
14046;SDS011;7098;51.228;3.228;2023-04-19T12:38:39;2.50;;;2.30;;
14046;SDS011;7098;51.228;3.228;2023-04-19T12:41:05;2.45;;;2.20;;
14046;SDS011;7098;51.228;3.228;2023-04-19T12:43:31;3.17;;;2.30;;
14046;SDS011;7098;51.228;3.228;2023-04-19T12:46:00;3.10;;;2.25;;
14046;SDS011;7098;51.228;3.228;2023-04-19T12:48:26;4.25;;;2.42;;
14046;SDS011;7098;51.228;3.228;2023-04-19T12:50:52;4.95;;;2.50;;
14046;SDS011;7098;51.228;3.228;2023-04-19T12:53:18;2.58;;;2.15;;
14046;SDS011;7098;51.228;3.228;2023-04-19T12:55:46;2.70;;;2.50;;
14046;SDS011;7098;51.228;3.228;2023-04-19T12:58:14;2.50;;;2.10;;
14046;SDS011;7098;51.228;3.228;2023-04-19T13:00:43;3.08;;;2.38;;
14046;SDS011;7098;51.228;3.228;2023-04-19T13:03:08;2.47;;;2.22;;
14046;SDS011;7098;51.228;3.228;2023-04-19T13:05:36;2.30;;;2.10;;
14046;SDS011;7098;51.228;3.228;2023-04-19T13:08:02;2.08;;;1.92;;
14046;SDS011;7098;51.228;3.228;2023-04-19T13:10:27;2.25;;;2.00;;
14046;SDS011;7098;51.228;3.228;2023-04-19T13:12:53;3.00;;;2.13;;
14046;SDS011;7098;51.228;3.228;2023-04-19T13:15:20;5.88;;;2.42;;
14046;SDS011;7098;51.228;3.228;2023-04-19T13:17:45;2.67;;;1.90;;
14046;SDS011;7098;51.228;3.228;2023-04-19T13:20:11;3.35;;;2.05;;
14046;SDS011;7098;51.228;3.228;2023-04-19T13:22:37;3.47;;;2.00;;
14046;SDS011;7098;51.228;3.228;2023-04-19T13:25:03;5.18;;;2.00;;
14046;SDS011;7098;51.228;3.228;2023-04-19T13:27:28;2.47;;;1.70;;
14046;SDS011;7098;51.228;3.228;2023-04-19T13:29:54;2.70;;;2.20;;
14046;SDS011;7098;51.228;3.228;2023-04-19T13:32:20;6.28;;;2.20;;
14046;SDS011;7098;51.228;3.228;2023-04-19T13:34:46;3.92;;;2.05;;
14046;SDS011;7098;51.228;3.228;2023-04-19T13:37:12;3.28;;;1.85;;
14046;SDS011;7098;51.228;3.228;2023-04-19T13:39:38;3.28;;;1.88;;
14046;SDS011;7098;51.228;3.228;2023-04-19T13:42:04;3.53;;;1.75;;
14046;SDS011;7098;51.228;3.228;2023-04-19T13:44:30;2.25;;;1.77;;
14046;SDS011;7098;51.228;3.228;2023-04-19T13:46:56;4.88;;;2.05;;
14046;SDS011;7098;51.228;3.228;2023-04-19T13:49:22;2.17;;;1.70;;
14046;SDS011;7098;51.228;3.228;2023-04-19T13:51:48;3.33;;;2.10;;
14046;SDS011;7098;51.228;3.228;2023-04-19T13:54:13;2.60;;;1.67;;
14046;SDS011;7098;51.228;3.228;2023-04-19T13:56:41;3.15;;;1.90;;
14046;SDS011;7098;51.228;3.228;2023-04-19T13:59:07;4.47;;;1.80;;
14046;SDS011;7098;51.228;3.228;2023-04-19T14:01:33;2.90;;;1.58;;
14046;SDS011;7098;51.228;3.228;2023-04-19T14:04:00;2.83;;;1.50;;
14046;SDS011;7098;51.228;3.228;2023-04-19T14:06:25;3.10;;;1.58;;
14046;SDS011;7098;51.228;3.228;2023-04-19T14:08:51;2.33;;;1.70;;
14046;SDS011;7098;51.228;3.228;2023-04-19T14:11:17;3.30;;;1.70;;
14046;SDS011;7098;51.228;3.228;2023-04-19T14:13:43;2.42;;;1.67;;
14046;SDS011;7098;51.228;3.228;2023-04-19T14:16:09;3.75;;;1.52;;
14046;SDS011;7098;51.228;3.228;2023-04-19T14:18:35;2.35;;;1.50;;
14046;SDS011;7098;51.228;3.228;2023-04-19T14:21:00;2.83;;;1.50;;
14046;SDS011;7098;51.228;3.228;2023-04-19T14:23:26;2.38;;;1.58;;
14046;SDS011;7098;51.228;3.228;2023-04-19T14:25:52;2.17;;;1.48;;
14046;SDS011;7098;51.228;3.228;2023-04-19T14:28:18;2.80;;;1.42;;
14046;SDS011;7098;51.228;3.228;2023-04-19T14:30:43;2.88;;;1.60;;
14046;SDS011;7098;51.228;3.228;2023-04-19T14:33:09;1.27;;;1.13;;
14046;SDS011;7098;51.228;3.228;2023-04-19T14:35:35;2.72;;;1.40;;
14046;SDS011;7098;51.228;3.228;2023-04-19T14:38:00;1.88;;;1.40;;
14046;SDS011;7098;51.228;3.228;2023-04-19T14:40:26;3.50;;;1.52;;
14046;SDS011;7098;51.228;3.228;2023-04-19T14:42:52;1.65;;;1.30;;
14046;SDS011;7098;51.228;3.228;2023-04-19T14:45:18;2.03;;;1.20;;
14046;SDS011;7098;51.228;3.228;2023-04-19T14:47:44;1.40;;;1.30;;
14046;SDS011;7098;51.228;3.228;2023-04-19T14:50:10;2.33;;;1.25;;
14046;SDS011;7098;51.228;3.228;2023-04-19T14:52:35;2.05;;;1.40;;
14046;SDS011;7098;51.228;3.228;2023-04-19T14:55:01;1.50;;;1.17;;
14046;SDS011;7098;51.228;3.228;2023-04-19T14:57:27;1.88;;;1.50;;
14046;SDS011;7098;51.228;3.228;2023-04-19T14:59:53;3.00;;;1.50;;
14046;SDS011;7098;51.228;3.228;2023-04-19T15:02:22;4.53;;;1.55;;
14046;SDS011;7098;51.228;3.228;2023-04-19T15:04:48;2.65;;;1.25;;
14046;SDS011;7098;51.228;3.228;2023-04-19T15:07:14;1.67;;;1.38;;
14046;SDS011;7098;51.228;3.228;2023-04-19T15:09:40;1.77;;;1.25;;
14046;SDS011;7098;51.228;3.228;2023-04-19T15:12:06;1.73;;;1.50;;
14046;SDS011;7098;51.228;3.228;2023-04-19T15:14:31;1.80;;;1.45;;